Terminal Aerodrome Forecast
Issued by NWS

Home | Current Version | Previous Version | Text Only | Print | Product List | Glossary On
Versions: 1 2 3 4 5 6 7 8 9 10 11 12 13 14 15 16 17 18 19 20 21
000
FTUS46 KLOX 212300 RRA
TAFOXR
TAF
KOXR 212345Z 2200/2224 27012KT P6SM SKC
     FM220300 29004KT P6SM SCT014
     FM220800 VRB03KT P6SM OVC009
     FM221500 25005KT P6SM BKN014
     FM221800 27010KT P6SM FEW014=

USA.gov is the U.S. government's official web portal to all federal, state and local government web resources and services.